Time;durP1;ratioP1;P1;durP2;ratioP2;P2;SDS_P1;SDS_P2;PMS_P1;PMS_P2;Temp;Humidity;BMP_temperature;BMP_pressure;BME280_temperature;BME280_humidity;BME280_pressure;Samples;Min_cycle;Max_cycle;Signal;HPM_P1;HPM_P2
2022/03/08 00:01:14;;;;;;;7.27;4.70;;;-0.90;99.90;;;;;;5034725;28;20681;-91
2022/03/08 00:03:39;;;;;;;4.93;4.13;;;-0.90;1.00;;;;;;5034621;28;20180;-91
2022/03/08 00:06:05;;;;;;;6.00;4.40;;;-0.90;1.00;;;;;;5034505;28;20185;-91
2022/03/08 00:08:30;;;;;;;7.03;4.43;;;-1.00;1.00;;;;;;5034596;28;20232;-91
2022/03/08 00:10:56;;;;;;;5.27;4.20;;;-1.00;99.90;;;;;;5034488;28;20270;-91
2022/03/08 00:13:22;;;;;;;6.27;4.30;;;-1.00;99.90;;;;;;5035623;28;20171;-91
2022/03/08 00:15:48;;;;;;;5.43;3.77;;;-1.10;1.00;;;;;;5035704;28;20193;-91
2022/03/08 00:18:13;;;;;;;5.80;4.20;;;-1.10;99.90;;;;;;5034334;28;20193;-91
2022/03/08 00:20:39;;;;;;;6.73;4.30;;;-1.10;1.00;;;;;;5034344;28;20563;-91
2022/03/08 00:23:05;;;;;;;6.20;4.70;;;-1.10;99.90;;;;;;5034880;28;20645;-90
2022/03/08 00:25:30;;;;;;;8.57;4.30;;;-1.20;1.00;;;;;;5034423;28;20189;-91
2022/03/08 00:27:56;;;;;;;7.37;4.10;;;-1.20;46.60;;;;;;5053700;28;20238;-90
2022/03/08 00:30:24;;;;;;;7.60;4.10;;;-1.20;99.90;;;;;;5057226;28;20190;-91
2022/03/08 00:32:52;;;;;;;5.30;4.30;;;-1.20;99.90;;;;;;5057973;28;20178;-91
2022/03/08 00:35:18;;;;;;;6.77;4.93;;;-1.20;99.90;;;;;;5057080;28;20187;-91
2022/03/08 00:37:49;;;;;;;8.37;4.47;;;-1.20;99.90;;;;;;5056390;28;20198;-91
2022/03/08 00:40:16;;;;;;;6.67;4.50;;;-1.20;99.90;;;;;;5056891;28;20180;-91
2022/03/08 00:42:42;;;;;;;8.13;5.00;;;-1.20;1.00;;;;;;5035923;28;20179;-91
2022/03/08 00:45:09;;;;;;;6.50;5.00;;;-1.20;99.90;;;;;;5034135;28;20190;-91
2022/03/08 00:47:35;;;;;;;6.97;5.30;;;-1.20;99.90;;;;;;5033942;28;20286;-91
2022/03/08 00:50:02;;;;;;;6.83;4.80;;;-1.20;1.00;;;;;;5050354;28;20198;-91
2022/03/08 00:52:27;;;;;;;6.03;4.50;;;-1.30;1.00;;;;;;5033975;28;20206;-91
2022/03/08 00:54:53;;;;;;;7.93;4.77;;;-1.30;99.90;;;;;;5033983;28;20171;-91
2022/03/08 00:57:18;;;;;;;9.53;4.10;;;-1.30;99.90;;;;;;5032629;28;20753;-91
2022/03/08 00:59:44;;;;;;;5.70;4.40;;;-1.40;10.70;;;;;;5033493;28;20175;-91
2022/03/08 01:02:10;;;;;;;5.17;4.20;;;-1.40;83.10;;;;;;5050145;28;20274;-91
2022/03/08 01:04:35;;;;;;;5.13;4.30;;;-1.40;99.90;;;;;;5033645;28;20179;-91
2022/03/08 01:07:01;;;;;;;6.03;4.63;;;-1.40;99.90;;;;;;5050168;28;20194;-91
2022/03/08 01:09:26;;;;;;;5.20;4.13;;;-1.50;99.90;;;;;;5049849;28;20203;-91
2022/03/08 01:11:52;;;;;;;7.73;4.73;;;-1.40;1.00;;;;;;5050082;28;20174;-91
2022/03/08 01:14:18;;;;;;;5.60;4.13;;;-1.40;1.00;;;;;;5033381;28;20240;-91
2022/03/08 01:16:43;;;;;;;7.33;4.47;;;-1.50;99.90;;;;;;5033229;28;20170;-91
2022/03/08 01:19:09;;;;;;;6.20;4.07;;;-1.50;1.00;;;;;;5034385;28;20523;-91
2022/03/08 01:21:36;;;;;;;4.80;3.87;;;-1.50;99.90;;;;;;5050689;28;20179;-91
2022/03/08 01:24:02;;;;;;;6.00;4.20;;;-1.60;29.80;;;;;;5034458;28;20688;-91
2022/03/08 01:26:28;;;;;;;6.67;4.70;;;-1.60;1.00;;;;;;5034565;28;20194;-91
2022/03/08 01:28:53;;;;;;;5.20;4.03;;;-1.60;1.00;;;;;;5074690;23;20227;-80
2022/03/08 01:31:19;;;;;;;5.60;3.77;;;-1.60;9.80;;;;;;5058432;28;20179;-80
2022/03/08 01:33:44;;;;;;;5.30;3.67;;;-1.60;74.30;;;;;;5056561;28;20247;-80
2022/03/08 01:36:11;;;;;;;6.70;4.53;;;-1.60;1.00;;;;;;5057136;28;20179;-79
2022/03/08 01:38:37;;;;;;;8.40;4.63;;;-1.60;99.90;;;;;;5056202;28;20200;-79
2022/03/08 01:41:03;;;;;;;5.13;3.87;;;-1.70;99.90;;;;;;5056334;28;20264;-79
2022/03/08 01:43:28;;;;;;;6.83;3.53;;;-1.60;1.00;;;;;;5058074;28;20616;-79
2022/03/08 01:45:54;;;;;;;6.90;3.80;;;-1.70;1.00;;;;;;5056149;28;20218;-79
2022/03/08 01:48:19;;;;;;;5.83;4.23;;;-1.70;99.90;;;;;;5056074;28;20197;-79
2022/03/08 01:50:46;;;;;;;5.20;3.83;;;-1.70;99.90;;;;;;5054862;28;20657;-79
2022/03/08 01:53:13;;;;;;;7.57;4.80;;;-1.70;1.00;;;;;;5056774;28;20181;-79
2022/03/08 01:55:38;;;;;;;5.30;4.50;;;-1.70;1.00;;;;;;5055717;28;20571;-79
2022/03/08 01:58:04;;;;;;;5.07;3.97;;;-1.80;53.70;;;;;;5056487;28;20184;-79
2022/03/08 02:00:31;;;;;;;5.63;4.40;;;-1.80;99.90;;;;;;5056375;28;20183;-79
2022/03/08 02:02:57;;;;;;;8.93;4.57;;;-1.80;99.90;;;;;;5057292;28;20190;-79
2022/03/08 02:05:24;;;;;;;4.83;3.97;;;-1.80;79.40;;;;;;5057809;28;20176;-79
2022/03/08 02:07:50;;;;;;;5.40;4.23;;;-1.80;99.90;;;;;;5058122;28;20208;-79
2022/03/08 02:10:16;;;;;;;6.67;4.63;;;-1.80;1.00;;;;;;5056667;28;20196;-79
2022/03/08 02:12:41;;;;;;;5.53;4.00;;;-1.70;5.20;;;;;;5057418;28;20175;-79
2022/03/08 02:15:37;;;;;;;5.17;3.73;;;-1.80;1.00;;;;;;5056325;28;20535;-79
2022/03/08 02:18:03;;;;;;;6.10;4.27;;;-1.80;1.00;;;;;;5053395;28;20202;-79
2022/03/08 02:20:29;;;;;;;7.50;4.37;;;-1.80;99.90;;;;;;5057830;28;20175;-79
2022/03/08 02:22:55;;;;;;;6.80;5.03;;;-1.70;99.90;;;;;;5057247;28;20196;-79
2022/03/08 02:25:22;;;;;;;6.07;4.07;;;-1.80;1.00;;;;;;5058215;28;20663;-79
2022/03/08 02:27:50;;;;;;;6.73;4.63;;;-1.80;1.00;;;;;;5057071;28;20218;-79
2022/03/08 02:30:17;;;;;;;6.50;4.90;;;-1.80;1.00;;;;;;5057481;28;20713;-79
2022/03/08 02:32:43;;;;;;;5.07;4.20;;;-1.80;1.00;;;;;;5055582;28;20265;-79
2022/03/08 02:35:15;;;;;;;5.27;4.03;;;-1.80;99.90;;;;;;5057872;28;20621;-79
2022/03/08 02:37:47;;;;;;;8.77;5.00;;;-1.80;99.90;;;;;;5057749;28;20188;-79
2022/03/08 02:40:19;;;;;;;9.13;4.57;;;-1.80;99.90;;;;;;5056292;28;20179;-79
2022/03/08 02:42:45;;;;;;;6.90;4.77;;;-1.90;99.90;;;;;;5056525;28;20176;-79
2022/03/08 02:45:12;;;;;;;5.37;4.40;;;-1.90;99.90;;;;;;5060142;28;20177;-79
2022/03/08 02:47:38;;;;;;;5.83;4.47;;;-1.80;1.00;;;;;;5062085;28;20197;-79
2022/03/08 02:50:06;;;;;;;7.03;4.43;;;-2.00;1.00;;;;;;5059499;28;20200;-79
2022/03/08 02:52:33;;;;;;;9.57;5.17;;;-2.00;1.00;;;;;;5059964;28;20674;-79
2022/03/08 02:54:59;;;;;;;6.53;4.67;;;-2.00;99.90;;;;;;5062553;28;20204;-79
2022/03/08 02:57:24;;;;;;;7.60;4.50;;;-2.00;99.90;;;;;;5060740;28;20560;-79
2022/03/08 02:59:50;;;;;;;6.13;4.93;;;-2.00;1.00;;;;;;5059009;28;20250;-79
2022/03/08 03:02:15;;;;;;;8.37;4.47;;;-2.00;44.90;;;;;;5063388;28;20182;-79
2022/03/08 03:04:41;;;;;;;6.77;4.70;;;-2.00;99.90;;;;;;5063490;28;20183;-79
2022/03/08 03:07:06;;;;;;;5.40;4.57;;;-2.10;99.90;;;;;;5059505;28;20227;-79
2022/03/08 03:09:32;;;;;;;6.10;4.80;;;-2.10;1.00;;;;;;5058614;28;20199;-78
2022/03/08 03:11:57;;;;;;;5.73;4.70;;;-2.10;1.00;;;;;;5060819;28;20210;-79
2022/03/08 03:14:23;;;;;;;6.30;4.40;;;-2.10;1.00;;;;;;5057873;28;20168;-80
2022/03/08 03:16:49;;;;;;;6.33;4.73;;;-2.10;1.00;;;;;;5057131;28;20178;-79
2022/03/08 03:19:14;;;;;;;6.10;4.50;;;-2.10;1.00;;;;;;5057432;28;20271;-79
2022/03/08 03:21:40;;;;;;;7.03;5.03;;;-2.10;1.00;;;;;;5055967;28;20216;-79
2022/03/08 03:24:05;;;;;;;5.67;4.33;;;-2.10;1.00;;;;;;5055881;28;20189;-80
2022/03/08 03:26:31;;;;;;;5.40;4.50;;;-2.10;1.00;;;;;;5058380;28;20263;-79
2022/03/08 03:28:56;;;;;;;6.17;4.93;;;-2.10;1.00;;;;;;5058546;28;20207;-79
2022/03/08 03:31:22;;;;;;;6.03;4.73;;;-2.10;1.00;;;;;;5059064;28;20181;-79
2022/03/08 03:33:48;;;;;;;8.23;5.17;;;-2.10;1.00;;;;;;5058621;28;20172;-79
2022/03/08 03:36:13;;;;;;;6.23;5.00;;;-2.10;1.00;;;;;;5059019;28;20185;-79
2022/03/08 03:38:39;;;;;;;9.90;4.97;;;-2.10;1.00;;;;;;5057807;28;20187;-78
2022/03/08 03:41:04;;;;;;;5.77;4.90;;;-2.10;1.00;;;;;;5057630;28;20227;-79
2022/03/08 03:43:30;;;;;;;6.53;4.83;;;-2.10;1.00;;;;;;5056910;28;20201;-79
2022/03/08 03:45:56;;;;;;;7.83;5.17;;;-2.10;1.00;;;;;;5057244;28;20592;-78
2022/03/08 03:48:21;;;;;;;4.73;4.23;;;-2.10;1.00;;;;;;5058038;28;20262;-79
2022/03/08 03:50:47;;;;;;;7.87;4.90;;;-2.20;1.00;;;;;;5058905;28;20217;-79
2022/03/08 03:53:12;;;;;;;6.50;5.00;;;-2.10;1.00;;;;;;5056897;28;20175;-79
2022/03/08 03:55:38;;;;;;;7.53;4.83;;;-2.10;1.00;;;;;;5057060;28;20264;-79
2022/03/08 03:58:04;;;;;;;6.87;4.53;;;-2.10;1.00;;;;;;5058898;28;20565;-79
2022/03/08 04:00:29;;;;;;;5.60;4.70;;;-2.20;1.00;;;;;;5059797;28;20181;-79
2022/03/08 04:02:55;;;;;;;5.67;4.50;;;-2.20;1.00;;;;;;5059015;28;20181;-79
2022/03/08 04:05:21;;;;;;;6.83;4.70;;;-2.20;36.30;;;;;;5061819;28;20174;-79
2022/03/08 04:07:46;;;;;;;6.90;5.00;;;-2.20;89.40;;;;;;5059074;28;20570;-79
2022/03/08 04:10:14;;;;;;;5.87;4.80;;;-2.20;99.90;;;;;;5058564;28;20195;-79
2022/03/08 04:12:40;;;;;;;6.60;4.23;;;-2.20;99.90;;;;;;5060298;28;20236;-80
2022/03/08 04:15:06;;;;;;;8.50;4.87;;;-2.20;86.30;;;;;;5059466;28;20538;-79
2022/03/08 04:17:31;;;;;;;6.03;4.93;;;-2.20;73.70;;;;;;5059211;28;20264;-79
2022/03/08 04:19:57;;;;;;;7.90;4.73;;;-2.20;71.90;;;;;;5060535;28;20565;-79
2022/03/08 04:22:23;;;;;;;6.77;4.47;;;-2.30;32.00;;;;;;5061184;28;20325;-79
2022/03/08 04:24:48;;;;;;;5.77;4.30;;;-2.20;96.50;;;;;;5061422;28;20175;-79
2022/03/08 04:27:14;;;;;;;6.10;4.60;;;-2.30;99.90;;;;;;5063483;28;20301;-79
2022/03/08 04:29:40;;;;;;;5.93;4.80;;;-2.30;99.90;;;;;;5060460;28;20276;-79
2022/03/08 04:32:05;;;;;;;8.03;5.20;;;-2.30;99.90;;;;;;5062060;28;20646;-79
2022/03/08 04:34:31;;;;;;;7.60;5.07;;;-2.30;99.90;;;;;;5062589;28;20177;-79
2022/03/08 04:36:57;;;;;;;9.70;5.33;;;-2.30;99.90;;;;;;5060427;28;20665;-80
2022/03/08 04:39:22;;;;;;;9.33;5.47;;;-2.30;99.90;;;;;;5059796;28;20628;-80
2022/03/08 04:41:48;;;;;;;5.83;4.53;;;-2.30;99.90;;;;;;5061669;28;20217;-79
2022/03/08 04:44:14;;;;;;;10.93;6.43;;;-2.30;99.90;;;;;;5060409;28;20181;-79
2022/03/08 04:46:40;;;;;;;7.77;5.50;;;-2.30;99.90;;;;;;5061523;28;20184;-79
2022/03/08 04:49:06;;;;;;;8.63;5.27;;;-2.30;99.90;;;;;;5059056;28;20206;-79
2022/03/08 04:51:32;;;;;;;7.47;5.13;;;-2.30;99.90;;;;;;5060556;28;20182;-79
2022/03/08 04:53:57;;;;;;;7.70;5.23;;;-2.30;99.90;;;;;;5060736;28;20181;-79
2022/03/08 04:56:23;;;;;;;8.50;5.30;;;-2.30;99.90;;;;;;5060821;28;20180;-79
2022/03/08 04:58:48;;;;;;;6.50;5.40;;;-2.40;99.90;;;;;;5061306;28;20203;-79
2022/03/08 05:01:15;;;;;;;6.87;4.90;;;-2.30;99.90;;;;;;5062164;28;20181;-79
2022/03/08 05:03:41;;;;;;;10.63;5.80;;;-2.30;99.90;;;;;;5059109;28;20177;-79
2022/03/08 05:06:07;;;;;;;8.20;5.47;;;-2.30;99.90;;;;;;5059663;28;20172;-79
2022/03/08 05:08:32;;;;;;;8.77;5.30;;;-2.30;99.90;;;;;;5058678;28;20199;-79
2022/03/08 05:10:58;;;;;;;6.37;5.50;;;-2.30;99.90;;;;;;5057459;28;20283;-79
2022/03/08 05:13:24;;;;;;;7.30;5.40;;;-2.30;99.90;;;;;;5057061;28;20207;-79
2022/03/08 05:15:50;;;;;;;8.53;5.60;;;-2.30;96.00;;;;;;5058179;28;20229;-79
2022/03/08 05:18:18;;;;;;;7.30;5.03;;;-2.30;49.00;;;;;;5057669;28;20663;-79
2022/03/08 05:20:43;;;;;;;8.47;5.30;;;-2.30;40.70;;;;;;5057505;28;20181;-79
2022/03/08 05:23:09;;;;;;;7.20;5.60;;;-2.30;16.90;;;;;;5056620;28;20226;-79
2022/03/08 05:25:35;;;;;;;8.97;5.87;;;-2.30;1.00;;;;;;5057354;28;20579;-79
2022/03/08 05:28:00;;;;;;;7.43;5.70;;;-2.30;1.00;;;;;;5053076;28;20218;-79
2022/03/08 05:30:26;;;;;;;11.07;5.93;;;-2.30;1.00;;;;;;5052687;28;20227;-79
2022/03/08 05:32:52;;;;;;;9.57;5.13;;;-2.30;42.50;;;;;;5059129;28;20184;-79
2022/03/08 05:35:18;;;;;;;7.33;5.20;;;-2.30;84.70;;;;;;5054179;28;20165;-78
2022/03/08 05:37:44;;;;;;;6.33;4.47;;;-2.30;99.90;;;;;;5072911;28;20238;-78
2022/03/08 05:40:10;;;;;;;8.37;5.20;;;-2.30;99.90;;;;;;5055295;28;20187;-78
2022/03/08 05:42:38;;;;;;;8.07;5.20;;;-2.30;99.90;;;;;;5053402;28;20198;-78
2022/03/08 05:45:08;;;;;;;7.00;5.80;;;-2.20;99.90;;;;;;5052133;28;20184;-79
2022/03/08 05:47:34;;;;;;;7.83;5.67;;;-2.30;90.10;;;;;;5052830;28;20269;-79
2022/03/08 05:50:00;;;;;;;9.23;6.03;;;-2.40;17.90;;;;;;5055616;28;20203;-79
2022/03/08 05:52:26;;;;;;;6.70;5.30;;;-2.40;23.80;;;;;;5056785;28;20173;-79
2022/03/08 05:54:51;;;;;;;7.00;5.53;;;-2.40;51.80;;;;;;5056937;28;20175;-79
2022/03/08 05:57:17;;;;;;;6.87;5.50;;;-2.40;72.40;;;;;;5056751;28;20202;-80
2022/03/08 05:59:44;;;;;;;6.43;5.53;;;-2.40;99.90;;;;;;5055169;28;20213;-80
2022/03/08 06:02:10;;;;;;;7.13;5.50;;;-2.40;99.90;;;;;;5055672;28;20177;-80
2022/03/08 06:04:36;;;;;;;9.20;5.60;;;-2.40;99.90;;;;;;5054829;28;20173;-78
2022/03/08 06:07:02;;;;;;;7.27;5.63;;;-2.40;99.90;;;;;;5054776;28;20201;-80
2022/03/08 06:09:27;;;;;;;6.00;5.40;;;-2.40;99.90;;;;;;5056171;28;20209;-80
2022/03/08 06:11:53;;;;;;;8.23;5.43;;;-2.40;99.90;;;;;;5062827;28;20178;-83
2022/03/08 06:14:18;;;;;;;10.47;6.03;;;-2.40;99.90;;;;;;5065365;28;20236;-83
2022/03/08 06:16:44;;;;;;;8.27;5.93;;;-2.40;99.90;;;;;;5064918;28;20675;-82
2022/03/08 06:19:10;;;;;;;9.53;5.60;;;-2.40;99.90;;;;;;5065765;28;20172;-82
2022/03/08 06:21:35;;;;;;;6.80;5.17;;;-2.40;99.90;;;;;;5065095;28;20184;-83
2022/03/08 06:24:01;;;;;;;7.53;5.60;;;-2.40;99.90;;;;;;5067362;28;20176;-83
2022/03/08 06:26:26;;;;;;;8.20;5.83;;;-2.40;99.90;;;;;;5064706;28;20187;-83
2022/03/08 06:28:52;;;;;;;8.17;5.67;;;-2.30;99.90;;;;;;5064155;28;20227;-83
2022/03/08 06:31:17;;;;;;;9.57;5.60;;;-2.30;99.90;;;;;;5064426;28;20267;-83
2022/03/08 06:33:43;;;;;;;8.60;5.87;;;-2.30;99.90;;;;;;5064723;28;20256;-83
2022/03/08 06:36:08;;;;;;;9.30;5.90;;;-2.30;99.90;;;;;;5064895;28;20214;-82
2022/03/08 06:38:34;;;;;;;17.77;5.60;;;-2.30;99.90;;;;;;5063315;28;20200;-83
2022/03/08 06:41:00;;;;;;;7.40;5.73;;;-2.30;99.90;;;;;;5064413;28;20174;-83
2022/03/08 06:43:25;;;;;;;7.57;5.70;;;-2.30;99.90;;;;;;5061762;28;20202;-83
2022/03/08 06:45:51;;;;;;;6.67;5.53;;;-2.30;99.90;;;;;;5063976;28;20194;-83
2022/03/08 06:48:16;;;;;;;9.23;5.73;;;-2.20;99.90;;;;;;5063524;28;20203;-81
2022/03/08 06:50:42;;;;;;;6.57;5.83;;;-2.20;99.90;;;;;;5062331;28;20208;-83
2022/03/08 06:53:07;;;;;;;11.03;6.67;;;-2.20;99.90;;;;;;5063740;28;20173;-83
2022/03/08 06:55:35;;;;;;;8.63;5.70;;;-2.20;99.90;;;;;;5064433;28;20180;-83
2022/03/08 06:58:01;;;;;;;8.67;6.90;;;-2.20;99.90;;;;;;5065972;28;20194;-83
2022/03/08 07:00:27;;;;;;;7.93;6.00;;;-2.10;99.90;;;;;;5065289;28;20172;-83
2022/03/08 07:02:52;;;;;;;8.70;6.40;;;-2.10;99.90;;;;;;5076826;28;20183;-82
2022/03/08 07:05:18;;;;;;;7.90;6.37;;;-2.10;99.90;;;;;;5076811;28;20177;-83
2022/03/08 07:07:44;;;;;;;10.30;6.53;;;-2.00;99.90;;;;;;5076349;28;20268;-83
2022/03/08 07:10:09;;;;;;;8.37;6.57;;;-1.90;99.90;;;;;;5064577;28;20208;-83
2022/03/08 07:12:35;;;;;;;10.77;6.70;;;-1.80;99.90;;;;;;5061757;28;20184;-83
2022/03/08 07:15:00;;;;;;;16.80;7.70;;;-1.70;42.00;;;;;;5061262;28;20180;-83
2022/03/08 07:17:26;;;;;;;10.30;6.17;;;-1.60;1.00;;;;;;5061044;28;20749;-83
2022/03/08 07:19:51;;;;;;;9.63;6.30;;;-1.40;1.00;;;;;;5060220;28;20189;-83
2022/03/08 07:22:17;;;;;;;12.60;7.07;;;-1.30;99.90;;;;;;5060043;28;20262;-84
2022/03/08 07:24:43;;;;;;;8.47;5.60;;;-1.20;1.00;;;;;;5057030;28;20219;-81
2022/03/08 07:27:09;;;;;;;6.77;5.50;;;-1.00;99.90;;;;;;5054517;28;20213;-81
2022/03/08 07:29:35;;;;;;;9.20;6.77;;;-0.80;50.90;;;;;;5054921;28;20205;-80
2022/03/08 07:32:01;;;;;;;11.60;5.67;;;-0.60;1.00;;;;;;5059123;28;20261;-81
2022/03/08 07:34:27;;;;;;;8.10;5.40;;;-0.40;1.00;;;;;;5062166;28;20661;-81
2022/03/08 07:36:52;;;;;;;9.83;5.10;;;-0.20;99.90;;;;;;5062872;28;20190;-81
2022/03/08 07:39:18;;;;;;;6.53;4.60;;;0.00;99.90;;;;;;5063189;28;20564;-81
2022/03/08 07:41:43;;;;;;;10.03;4.30;;;0.20;1.00;;;;;;5063689;28;20645;-81
2022/03/08 07:44:09;;;;;;;8.40;4.63;;;0.40;1.00;;;;;;5064299;28;20269;-80
2022/03/08 07:46:34;;;;;;;6.83;4.70;;;0.60;99.90;;;;;;5068058;22;20233;-75
2022/03/08 07:49:00;;;;;;;6.43;4.30;;;0.70;99.90;;;;;;5034423;28;20199;-76
2022/03/08 07:51:26;;;;;;;10.27;4.90;;;0.90;1.00;;;;;;5035617;28;20241;-76
2022/03/08 07:53:52;;;;;;;8.80;4.43;;;1.10;1.00;;;;;;5035507;28;20178;-76
2022/03/08 07:56:17;;;;;;;11.93;4.93;;;1.20;99.90;;;;;;5035459;28;20191;-76
2022/03/08 07:58:43;;;;;;;6.93;4.40;;;1.50;99.90;;;;;;5035769;28;20183;-76
2022/03/08 08:01:08;;;;;;;6.17;4.30;;;1.50;99.90;;;;;;5036033;28;20182;-76
2022/03/08 08:03:34;;;;;;;6.43;4.00;;;1.70;1.00;;;;;;5035394;28;20167;-76
2022/03/08 08:06:02;;;;;;;6.57;4.67;;;1.80;1.00;;;;;;5035261;28;20192;-76
2022/03/08 08:08:27;;;;;;;5.60;4.50;;;2.00;1.00;;;;;;5034105;28;20227;-76
2022/03/08 08:10:53;;;;;;;5.70;4.53;;;2.20;99.90;;;;;;5035509;28;20196;-76
2022/03/08 08:13:19;;;;;;;8.53;4.03;;;2.40;84.20;;;;;;5035524;28;20579;-76
2022/03/08 08:15:44;;;;;;;6.97;4.63;;;2.60;1.00;;;;;;5035153;28;20282;-76
2022/03/08 08:18:10;;;;;;;5.77;4.43;;;2.70;1.00;;;;;;5033155;28;20173;-76
2022/03/08 08:20:35;;;;;;;3.90;3.50;;;2.70;1.00;;;;;;5034630;28;20184;-76
2022/03/08 08:23:01;;;;;;;5.17;4.10;;;2.90;1.00;;;;;;5032506;28;20266;-76
2022/03/08 08:25:27;;;;;;;6.90;3.97;;;2.90;1.00;;;;;;5034321;28;20678;-76
2022/03/08 08:27:52;;;;;;;5.13;4.07;;;3.00;1.00;;;;;;5034531;28;20624;-76
2022/03/08 08:30:18;;;;;;;6.33;3.97;;;3.20;1.00;;;;;;5034651;28;20202;-76
2022/03/08 08:32:44;;;;;;;5.97;3.83;;;3.30;99.90;;;;;;5033805;28;20176;-77
2022/03/08 08:35:09;;;;;;;5.50;3.87;;;3.40;99.90;;;;;;5034375;28;20263;-76
2022/03/08 08:37:35;;;;;;;6.03;3.87;;;3.50;99.90;;;;;;5033500;28;20199;-76
2022/03/08 08:40:01;;;;;;;4.83;3.40;;;3.60;99.90;;;;;;5033862;28;20180;-75
2022/03/08 08:42:27;;;;;;;4.93;3.53;;;3.80;14.20;;;;;;5031249;28;20212;-76
2022/03/08 08:44:53;;;;;;;3.83;3.47;;;3.90;1.00;;;;;;5034146;28;20191;-75
2022/03/08 08:47:19;;;;;;;4.13;3.20;;;4.00;1.00;;;;;;5032595;28;20224;-76
2022/03/08 08:49:44;;;;;;;6.67;3.43;;;4.10;1.00;;;;;;5033074;28;20208;-76
2022/03/08 08:52:11;;;;;;;3.73;3.33;;;4.20;1.00;;;;;;5032506;28;20188;-75
2022/03/08 08:54:37;;;;;;;4.33;3.47;;;4.30;1.00;;;;;;5033005;28;20541;-75
2022/03/08 08:57:02;;;;;;;4.80;3.30;;;4.40;1.00;;;;;;5033454;28;20293;-76
2022/03/08 08:59:28;;;;;;;4.17;2.80;;;4.60;99.90;;;;;;5032696;28;20190;-76
2022/03/08 09:01:53;;;;;;;3.70;3.07;;;4.60;99.90;;;;;;5033120;28;20554;-75
2022/03/08 09:04:19;;;;;;;3.87;2.90;;;4.80;99.90;;;;;;5033887;28;20246;-75
2022/03/08 09:06:45;;;;;;;4.00;3.37;;;4.90;99.90;;;;;;5032975;28;20196;-75
2022/03/08 09:09:10;;;;;;;4.50;2.90;;;4.90;99.90;;;;;;5033173;28;20208;-75
2022/03/08 09:11:36;;;;;;;3.53;2.90;;;5.10;99.90;;;;;;5032919;28;20180;-76
2022/03/08 09:14:04;;;;;;;5.47;3.17;;;5.20;99.90;;;;;;5032393;28;20202;-76
2022/03/08 09:16:30;;;;;;;3.37;2.67;;;5.20;99.90;;;;;;5032095;28;20737;-75
2022/03/08 09:18:56;;;;;;;4.47;3.23;;;5.30;99.90;;;;;;5031340;28;20271;-76
2022/03/08 09:21:21;;;;;;;7.40;3.20;;;5.40;99.90;;;;;;5031526;28;20187;-75
2022/03/08 09:23:47;;;;;;;5.30;3.87;;;5.40;99.90;;;;;;5033358;28;20263;-75
2022/03/08 09:26:12;;;;;;;3.23;2.80;;;5.50;99.90;;;;;;5032249;28;20199;-75
2022/03/08 09:28:38;;;;;;;3.40;3.10;;;5.70;52.50;;;;;;5032122;28;20209;-76
2022/03/08 09:31:04;;;;;;;3.23;2.93;;;5.70;45.30;;;;;;5033104;28;20184;-76
2022/03/08 09:33:29;;;;;;;2.87;2.50;;;5.80;26.10;;;;;;5033355;28;20176;-75
2022/03/08 09:35:55;;;;;;;3.70;2.87;;;5.80;59.70;;;;;;5033727;28;20737;-75
2022/03/08 09:38:21;;;;;;;4.57;3.37;;;5.90;29.60;;;;;;5032995;28;20199;-76
2022/03/08 09:40:47;;;;;;;4.33;3.20;;;6.00;30.10;;;;;;5031633;28;20196;-76
2022/03/08 09:43:15;;;;;;;5.53;3.27;;;6.00;56.00;;;;;;5031374;28;20215;-75
2022/03/08 09:45:40;;;;;;;3.47;2.50;;;6.10;1.00;;;;;;5032644;28;20207;-75
2022/03/08 09:48:06;;;;;;;3.13;2.83;;;6.20;1.00;;;;;;5029865;28;20192;-76
2022/03/08 09:50:32;;;;;;;3.27;2.70;;;6.30;1.00;;;;;;5031655;28;20196;-76
2022/03/08 09:52:58;;;;;;;3.93;3.20;;;6.30;1.00;;;;;;5032456;28;20255;-76
2022/03/08 09:55:25;;;;;;;3.70;3.33;;;6.50;1.00;;;;;;5032114;28;20177;-76
2022/03/08 09:57:52;;;;;;;4.93;2.30;;;6.50;1.00;;;;;;5031665;28;20198;-76
2022/03/08 10:00:18;;;;;;;5.83;3.40;;;6.60;1.00;;;;;;5025711;28;20188;-75
2022/03/08 10:02:53;;;;;;;3.97;2.97;;;6.70;1.00;;;;;;5031427;28;20208;-75
2022/03/08 10:05:27;;;;;;;5.57;2.97;;;6.80;1.00;;;;;;5012545;28;20191;-76
2022/03/08 10:08:11;;;;;;;4.27;3.20;;;6.90;1.00;;;;;;5014262;28;20176;-76
2022/03/08 10:10:49;;;;;;;4.17;2.70;;;6.90;1.00;;;;;;5031114;28;20204;-75
2022/03/08 10:13:14;;;;;;;3.57;2.90;;;7.00;1.00;;;;;;5031350;28;20183;-76
2022/03/08 10:15:41;;;;;;;5.27;2.93;;;7.00;1.00;;;;;;5032822;28;20211;-75
2022/03/08 10:18:07;;;;;;;4.10;2.87;;;7.00;1.00;;;;;;5031506;28;20180;-76
2022/03/08 10:20:33;;;;;;;6.03;3.20;;;7.00;1.00;;;;;;5031528;28;20188;-75
2022/03/08 10:23:13;;;;;;;5.90;3.27;;;7.20;1.00;;;;;;5032255;28;20192;-75
2022/03/08 10:25:39;;;;;;;3.33;3.00;;;7.30;1.00;;;;;;5032351;28;20269;-75
2022/03/08 10:28:06;;;;;;;4.80;3.37;;;7.30;1.00;;;;;;5031160;28;20187;-75
2022/03/08 10:30:43;;;;;;;3.83;2.90;;;7.30;1.00;;;;;;5030315;28;20748;-75
2022/03/08 10:33:10;;;;;;;3.30;3.00;;;7.30;1.00;;;;;;5031325;28;20618;-76
2022/03/08 10:35:41;;;;;;;5.93;3.33;;;7.40;1.00;;;;;;5030905;28;20231;-75
2022/03/08 10:38:11;;;;;;;5.13;2.90;;;7.50;1.00;;;;;;5032236;28;20231;-75
2022/03/08 10:40:38;;;;;;;4.03;2.90;;;7.60;1.00;;;;;;5031374;28;20709;-75
2022/03/08 10:43:06;;;;;;;4.33;2.70;;;7.60;1.00;;;;;;5029712;28;20307;-76
2022/03/08 10:45:34;;;;;;;5.40;3.17;;;7.70;1.00;;;;;;5031976;28;20191;-75
2022/03/08 10:48:03;;;;;;;3.40;3.00;;;7.70;1.00;;;;;;5030844;28;20176;-76
2022/03/08 10:50:34;;;;;;;4.63;3.10;;;7.80;1.00;;;;;;5031610;28;20299;-75
2022/03/08 10:53:03;;;;;;;5.17;2.80;;;7.90;1.00;;;;;;5031739;28;20203;-76
2022/03/08 10:55:45;;;;;;;3.17;2.80;;;7.90;1.00;;;;;;5031414;28;20652;-75
2022/03/08 10:58:13;;;;;;;3.57;2.97;;;8.00;1.00;;;;;;5032606;28;20185;-76
2022/03/08 11:00:44;;;;;;;6.77;3.13;;;8.00;1.00;;;;;;5031816;28;20660;-75
2022/03/08 11:03:15;;;;;;;4.90;3.50;;;8.00;1.00;;;;;;5031489;28;20271;-75
2022/03/08 11:05:42;;;;;;;3.20;2.90;;;8.10;1.00;;;;;;5032493;28;20215;-75
2022/03/08 11:08:09;;;;;;;5.90;3.13;;;8.10;1.00;;;;;;5034711;28;20235;-74
2022/03/08 11:10:35;;;;;;;3.87;3.43;;;8.10;1.00;;;;;;5034216;28;20322;-75
2022/03/08 11:13:02;;;;;;;4.03;3.10;;;8.10;1.00;;;;;;5036011;28;20192;-76
2022/03/08 11:15:31;;;;;;;4.03;3.20;;;8.20;1.00;;;;;;5035789;28;20595;-76
2022/03/08 11:17:58;;;;;;;3.77;3.10;;;8.30;1.00;;;;;;5035842;28;20172;-76
2022/03/08 11:20:25;;;;;;;3.60;3.20;;;8.30;1.00;;;;;;5034184;28;20291;-76
2022/03/08 11:22:53;;;;;;;3.83;3.13;;;8.40;1.00;;;;;;5033701;28;20191;-76
2022/03/08 11:25:20;;;;;;;4.47;3.30;;;8.40;1.00;;;;;;5035494;28;20242;-76
2022/03/08 11:27:47;;;;;;;4.00;3.20;;;8.40;1.00;;;;;;5035754;28;20593;-76
2022/03/08 11:30:19;;;;;;;4.37;3.07;;;8.40;1.00;;;;;;5034165;28;20204;-75
2022/03/08 11:33:12;;;;;;;5.87;3.40;;;8.50;1.00;;;;;;5035615;28;20192;-75
2022/03/08 11:35:59;;;;;;;4.40;3.20;;;8.60;1.00;;;;;;5035074;28;20211;-75
2022/03/08 11:38:25;;;;;;;4.80;3.57;;;8.70;1.00;;;;;;5035686;28;20177;-76
2022/03/08 11:40:53;;;;;;;3.47;2.80;;;8.80;1.00;;;;;;5034020;28;20191;-75
2022/03/08 11:43:19;;;;;;;3.83;3.30;;;8.80;1.00;;;;;;5034348;28;20249;-76
2022/03/08 11:45:48;;;;;;;4.73;3.63;;;8.80;1.00;;;;;;5032705;28;20239;-75
2022/03/08 11:48:19;;;;;;;7.77;3.70;;;8.80;1.00;;;;;;5032820;28;20252;-76
2022/03/08 11:50:46;;;;;;;3.70;3.00;;;8.90;1.00;;;;;;5032682;28;20691;-77
2022/03/08 11:53:17;;;;;;;4.80;3.53;;;8.90;1.00;;;;;;5035474;28;20180;-76
2022/03/08 11:55:43;;;;;;;3.50;3.20;;;9.00;1.00;;;;;;5034681;28;20242;-77
2022/03/08 11:58:13;;;;;;;5.00;3.50;;;9.10;1.00;;;;;;5035869;28;20172;-76
2022/03/08 12:00:44;;;;;;;4.27;2.97;;;9.10;1.00;;;;;;5034944;28;20189;-75
2022/03/08 12:03:23;;;;;;;3.87;3.07;;;9.20;1.00;;;;;;5035952;28;20651;-75
2022/03/08 12:05:59;;;;;;;6.97;3.53;;;9.20;1.00;;;;;;5035566;28;20200;-75
2022/03/08 12:08:28;;;;;;;3.33;3.03;;;9.30;1.00;;;;;;5033412;28;20180;-74
2022/03/08 12:11:05;;;;;;;6.90;3.17;;;9.40;1.00;;;;;;5035410;28;20565;-75
2022/03/08 12:13:42;;;;;;;3.37;2.53;;;9.50;1.00;;;;;;5035430;28;20222;-75
2022/03/08 12:16:10;;;;;;;6.13;3.10;;;9.50;1.00;;;;;;5035384;28;20188;-75
2022/03/08 12:18:39;;;;;;;4.83;3.20;;;9.60;1.00;;;;;;5035400;28;20176;-75
2022/03/08 12:21:16;;;;;;;4.37;3.33;;;9.70;1.00;;;;;;5034268;28;20184;-75
2022/03/08 12:23:53;;;;;;;3.10;2.80;;;9.60;1.00;;;;;;5035305;28;20172;-75
2022/03/08 12:26:36;;;;;;;5.50;3.50;;;9.60;1.00;;;;;;5035166;28;20188;-76
2022/03/08 12:29:10;;;;;;;4.63;3.07;;;9.60;1.00;;;;;;5034025;28;20168;-75
2022/03/08 12:31:57;;;;;;;3.50;3.10;;;9.70;1.00;;;;;;5034070;28;20243;-76
2022/03/08 12:34:40;;;;;;;3.83;3.33;;;9.90;1.00;;;;;;5035138;28;20169;-76
2022/03/08 12:37:23;;;;;;;7.07;2.93;;;9.90;1.00;;;;;;5035069;28;20261;-77
2022/03/08 12:40:10;;;;;;;4.67;3.00;;;10.00;1.00;;;;;;5035022;28;20168;-75
2022/03/08 12:42:48;;;;;;;4.00;3.20;;;10.00;1.00;;;;;;5035316;28;20236;-76
2022/03/08 12:45:15;;;;;;;3.63;2.70;;;10.00;1.00;;;;;;5033708;28;20551;-76
2022/03/08 12:47:47;;;;;;;3.67;2.80;;;10.10;99.90;;;;;;5034713;28;20199;-77
2022/03/08 12:50:20;;;;;;;4.33;2.60;;;10.20;99.90;;;;;;5034846;28;20261;-76
2022/03/08 12:52:51;;;;;;;3.37;3.03;;;10.20;99.90;;;;;;5035129;28;20661;-76
2022/03/08 12:55:22;;;;;;;3.17;2.60;;;10.20;99.90;;;;;;5035161;28;20238;-76